Weather History for KSVH - April, 2014

Change the Weather History Date:

Wednesday, April 9, 2014

  Actual Average (KHKY) Record (KHKY)
Temperature  
Mean Temperature 55 °F -  
Max Temperature 65 °F 66 °F - (-1)
Min Temperature 45 °F 43 °F - (-1)
Degree Days  
Heating Degree Days 10    
Growing Degree Days 5 (Base 50)    
Moisture  
Dew Point 36 °F    
Average Humidity 49    
Maximum Humidity 68    
Minimum Humidity 28    
Precipitation  
Precipitation 0.03 in - - ()
Sea Level Pressure  
Sea Level Pressure 29.90 in    
Wind  
Wind Speed 6 mph (WNW)    
Max Wind Speed 15 mph    
Max Gust Speed 23 mph    
Visibility 10 miles    
Events      
Averages and records for this station are not official NWS values.
T = Trace of Precipitation, MM = Missing Value Source: NWS Daily Summary

Daily Weather History Graph

Daily Weather History Graph

Search for Another Location

Airport or City:

Trip Planner

Search our weather history database for the weather conditions in past years. The results will help you decide how hot, cold, wet, or windy it might be!

Date:

Astronomy

Apr. 09, 2014 Rise Set
Actual Time 6:59 AM EDT 7:52 PM EDT
Civil Twilight 6:33 AM EDT 8:18 PM EDT
Nautical Twilight 6:02 AM EDT 8:49 PM EDT
Astronomical Twilight 5:30 AM EDT 9:21 PM EDT
Moon 2:48 PM EDT (4/9) 3:37 AM EDT (4/9)
Length of Visible Light 13h 45m
Length of Day
12h 53m
Waxing Gibbous, 71% of the Moon is Illuminated
Apr 9
Waxing Gibbous
Apr 15
Full
Apr 22
Last Quarter
Apr 29
New
May 6
First Quarter

Hourly Weather History & Observations

Time (EDT) Temp. Dew Point Humidity Pressure Visibility Wind Dir Wind Speed Gust Speed Precip Events Conditions
12:15 AM 52.7 °F 36.0 °F 53% 29.73 in 10.0 mi WNW 3.5 mph - N/A   Mostly Cloudy
12:35 AM 53.4 °F 35.2 °F 50% 29.73 in 10.0 mi NW 4.6 mph - N/A   Mostly Cloudy
12:55 AM 52.7 °F 35.1 °F 51% 29.73 in 10.0 mi NW 4.6 mph - N/A   Overcast
1:15 AM 52.3 °F 34.9 °F 51% 29.73 in 10.0 mi WNW 4.6 mph - N/A   Mostly Cloudy
1:35 AM 48.4 °F 36.3 °F 63% 29.74 in 10.0 mi West 4.6 mph - N/A   Mostly Cloudy
1:55 AM 49.1 °F 36.1 °F 61% 29.74 in 10.0 mi Calm Calm - N/A   Overcast
2:15 AM 47.5 °F 37.2 °F 68% 29.74 in 10.0 mi Calm Calm - N/A   Mostly Cloudy
2:35 AM 47.8 °F 36.1 °F 64% 29.74 in 10.0 mi Calm Calm - N/A   Mostly Cloudy
2:55 AM 47.3 °F 36.1 °F 65% 29.74 in 10.0 mi Calm Calm - N/A   Overcast
3:15 AM 50.2 °F 36.1 °F 59% 29.73 in 10.0 mi WNW 3.5 mph - N/A   Overcast
3:35 AM 50.9 °F 36.0 °F 57% 29.74 in 10.0 mi WNW 3.5 mph - N/A   Overcast
3:55 AM 50.4 °F 36.7 °F 59% 29.74 in 10.0 mi WNW 4.6 mph - N/A   Overcast
4:15 AM 50.9 °F 37.4 °F 60% 29.74 in 10.0 mi WNW 4.6 mph - N/A   Overcast
4:35 AM 51.1 °F 37.2 °F 59% 29.74 in 10.0 mi WNW 3.5 mph - N/A   Overcast
4:55 AM 48.6 °F 38.3 °F 68% 29.74 in 10.0 mi West 5.8 mph - N/A   Overcast
5:15 AM 48.6 °F 37.4 °F 65% 29.75 in 10.0 mi West 4.6 mph - N/A   Scattered Clouds
5:35 AM 48.4 °F 36.9 °F 64% 29.76 in 10.0 mi WNW 4.6 mph - N/A   Clear
5:55 AM 48.6 °F 36.5 °F 63% 29.77 in 10.0 mi WNW 5.8 mph - N/A   Clear
6:15 AM 48.4 °F 36.5 °F 64% 29.78 in 10.0 mi NW 4.6 mph - N/A   Scattered Clouds
6:35 AM 48.4 °F 36.0 °F 62% 29.79 in 10.0 mi NW 5.8 mph - N/A   Scattered Clouds
6:55 AM 47.8 °F 35.8 °F 63% 29.81 in 10.0 mi WNW 5.8 mph - N/A   Scattered Clouds
7:15 AM 48.2 °F 36.0 °F 63% 29.83 in 10.0 mi WNW 5.8 mph - N/A   Clear
7:35 AM 48.2 °F 36.5 °F 64% 29.84 in 10.0 mi WNW 6.9 mph - N/A   Clear
7:55 AM 49.6 °F 37.4 °F 63% 29.85 in 10.0 mi NW 6.9 mph - N/A   Clear
8:15 AM 51.3 °F 38.1 °F 61% 29.86 in 10.0 mi WNW 5.8 mph - N/A   Clear
8:35 AM 53.1 °F 38.5 °F 58% 29.87 in 10.0 mi NW 8.1 mph - N/A   Clear
8:55 AM 54.7 °F 39.4 °F 56% 29.87 in 10.0 mi NW 8.1 mph - N/A   Clear
9:15 AM 56.1 °F 39.4 °F 53% 29.88 in 10.0 mi NW 10.4 mph - N/A   Scattered Clouds
9:35 AM 57.6 °F 39.2 °F 50% 29.89 in 10.0 mi NW 6.9 mph - N/A   Mostly Cloudy
9:55 AM 58.5 °F 40.5 °F 51% 29.90 in 10.0 mi WNW 12.7 mph 17.3 mph N/A   Scattered Clouds
10:15 AM 59.7 °F 38.7 °F 46% 29.91 in 10.0 mi NW 13.8 mph - N/A   Mostly Cloudy
10:35 AM 58.5 °F 37.9 °F 46% 29.92 in 10.0 mi NNW 6.9 mph - N/A   Mostly Cloudy
10:55 AM 59.2 °F 39.4 °F 48% 29.93 in 10.0 mi NW 11.5 mph 16.1 mph N/A   Scattered Clouds
11:15 AM 59.7 °F 39.9 °F 48% 29.94 in 10.0 mi WNW 9.2 mph 16.1 mph N/A   Overcast
11:35 AM - - N/A% - - North - - N/A   Unknown
11:55 AM 61.0 °F 38.7 °F 44% 29.94 in 10.0 mi NNW 9.2 mph 17.3 mph 0.03 in   Scattered Clouds
12:15 PM 61.0 °F 40.8 °F 47% 29.94 in 10.0 mi West 12.7 mph 17.3 mph N/A   Mostly Cloudy
12:35 PM 61.9 °F 41.5 °F 47% 29.94 in 10.0 mi WNW 11.5 mph 17.3 mph N/A   Mostly Cloudy
12:55 PM 61.3 °F 42.1 °F 49% 29.94 in 10.0 mi West 13.8 mph 18.4 mph N/A   Overcast
1:15 PM 61.2 °F 41.4 °F 48% 29.94 in 10.0 mi West 10.4 mph 16.1 mph N/A   Mostly Cloudy
1:35 PM 61.7 °F 41.5 °F 48% 29.95 in 10.0 mi WNW 12.7 mph 19.6 mph N/A   Mostly Cloudy
1:55 PM 63.9 °F 41.9 °F 45% 29.95 in 10.0 mi West 15.0 mph 18.4 mph N/A   Mostly Cloudy
2:15 PM 62.8 °F 41.4 °F 45% 29.95 in 10.0 mi NW 8.1 mph 23.0 mph N/A   Scattered Clouds
2:35 PM 63.7 °F 37.9 °F 39% 29.95 in 10.0 mi NW 12.7 mph 18.4 mph N/A   Scattered Clouds
2:55 PM 64.8 °F 40.3 °F 41% 29.95 in 10.0 mi WNW 12.7 mph 19.6 mph N/A   Scattered Clouds
3:15 PM 63.1 °F 38.7 °F 40% 29.94 in 10.0 mi WNW 11.5 mph 19.6 mph N/A   Mostly Cloudy
3:35 PM 64.6 °F 41.0 °F 42% 29.94 in 10.0 mi WNW 9.2 mph - N/A   Mostly Cloudy
3:55 PM 62.4 °F 37.9 °F 40% 29.95 in 10.0 mi NW 11.5 mph 16.1 mph N/A   Mostly Cloudy
4:15 PM 64.2 °F 39.4 °F 40% 29.95 in 10.0 mi NW 12.7 mph - N/A   Scattered Clouds
4:35 PM 64.9 °F 36.0 °F 34% 29.95 in 10.0 mi NW 10.4 mph 17.3 mph N/A   Scattered Clouds
4:55 PM 64.2 °F 35.2 °F 34% 29.95 in 10.0 mi NW 8.1 mph - N/A   Mostly Cloudy
5:15 PM 62.4 °F 36.0 °F 37% 29.95 in 10.0 mi NW 9.2 mph - N/A   Scattered Clouds
5:35 PM 65.3 °F 34.2 °F 31% 29.96 in 10.0 mi WNW 12.7 mph 19.6 mph N/A   Clear
5:55 PM 65.3 °F 32.5 °F 29% 29.96 in 10.0 mi West 12.7 mph 17.3 mph N/A   Clear
6:15 PM 64.6 °F 32.2 °F 30% 29.97 in 10.0 mi WNW 10.4 mph 19.6 mph N/A   Clear
6:35 PM 63.5 °F 30.0 °F 28% 29.97 in 10.0 mi West 10.4 mph - N/A   Clear
6:55 PM 63.0 °F 31.1 °F 30% 29.98 in 10.0 mi WNW 9.2 mph - N/A   Clear
7:15 PM 61.9 °F 30.4 °F 31% 29.99 in 10.0 mi WNW 6.9 mph - N/A   Clear
7:35 PM 60.3 °F 29.8 °F 32% 30.00 in 10.0 mi WNW 4.6 mph - N/A   Clear
7:55 PM 58.6 °F 30.0 °F 34% 30.01 in 10.0 mi West 4.6 mph - N/A   Clear
8:15 PM 57.2 °F 30.2 °F 36% 30.03 in 10.0 mi West 6.9 mph - N/A   Clear
8:35 PM 56.1 °F 30.2 °F 37% 30.04 in 10.0 mi West 4.6 mph - N/A   Clear
8:55 PM 54.5 °F 30.6 °F 40% 30.05 in 10.0 mi West 3.5 mph - N/A   Clear
9:15 PM 57.4 °F 28.2 °F 33% 30.06 in 10.0 mi WNW 3.5 mph - N/A   Clear
9:35 PM 54.0 °F 29.3 °F 39% 30.06 in 10.0 mi West 3.5 mph - N/A   Clear
9:55 PM 51.8 °F 30.2 °F 44% 30.08 in 10.0 mi West 3.5 mph - N/A   Clear
10:15 PM 50.2 °F 30.6 °F 47% 30.09 in 10.0 mi West 4.6 mph - N/A   Clear
10:35 PM 50.5 °F 30.2 °F 46% 30.09 in 10.0 mi Calm Calm - N/A   Clear
10:55 PM 45.7 °F 32.0 °F 59% 30.10 in 10.0 mi Calm Calm - N/A   Clear
11:15 PM 48.4 °F 31.3 °F 52% 30.10 in 10.0 mi WSW 3.5 mph - N/A   Clear
11:35 PM 49.5 °F 31.1 °F 49% 30.11 in 10.0 mi West 3.5 mph - N/A   Clear
11:55 PM 50.0 °F 31.1 °F 48% 30.11 in 10.0 mi WNW 4.6 mph - N/A   Clear